Aérodrome :
LOGIN :

S'inscrire | Disclaimer

   EN    FR    IT 

 










Légende :    VFR   VFR Marginal   IFR   IFR Intensif   IFR Très Intensif
Visi : 
Plafond : 
>= 8 km
>= 3000ft
5 à 8 km
1000 à 3000 ft
1500m à 5 km
500 à 1000 ft
800 à 1500m
200 à 500 ft
< 800m
< 200 ft
Symboles :   Orages  Brouillard  Fortes neiges  Fortes précipitations  Vent > 20 kt
SIGMETs :   Divers  Orages  Givrage  Turbulence  Onde Orograph.  Cendres Volcan.







- Altitude de l'aérodrome : 13 ft
- Code IATA : LYX
- Voir les cartes d'approche


EGMD - Lydd

DERNIER METAR :
  • 152220Z AUTO 23011KT 9999 SCT013/// 18/16 Q1017

METARs EXPIRÉS :
  • 152150Z AUTO 24011KT 9999 NCD 18/16 Q1017
  • 152120Z AUTO 24012KT 9999 FEW011/// 18/16 Q1017
  • 152050Z AUTO 25013KT 9999 SCT011/// 18/16 Q1018
  • 152020Z AUTO 24013KT 9999 BKN012/// BKN017/// 18/16 Q1018

TAF TAF EGMD
Valide du 15 à 21h jusqu'au 16 à 06h UTC


152002Z 1521/1606 24014KT 9999 SCT025
TEMPO 1521/1524 BKN010
PROB30
TEMPO 1600/1606 BKN010
PROB30
TEMPO 1603/1606 22018G28KT
ATIS : +44 1797 322 422
Pas de NOTAMs connus pour ce terrain.



MET'MAP, la Météo Aéronautique d'un coup d'oeil ! - Copyright ORBIFLY Décembre 2007 - Disclaimer

ORBIFLY MET'MAP TEAM :

Programmation & Développement : Alexandra Zaïnal
Conception & Développement : Baudouin d'Aumeries
Co-Programmation & Développement : Marc-Olivier Méhu
Soutien technique & logistique : Manuel Goepfert

Contact : metmap@orbifly.com




SOURCES & CREDITS :

   NOAA